sensor_id;sensor_type;location;lat;lon;timestamp;pressure;altitude;pressure_sealevel;temperature
71205;BMP180;58935;54.498;18.544;2022-08-05T00:01:18;100594.00;;;23.70
71205;BMP180;58935;54.498;18.544;2022-08-05T00:04:01;100587.40;;;23.66
71205;BMP180;58935;54.498;18.544;2022-08-05T00:06:30;100588.80;;;23.68
71205;BMP180;58935;54.498;18.544;2022-08-05T00:08:55;100590.80;;;23.60
71205;BMP180;58935;54.498;18.544;2022-08-05T00:11:24;100588.00;;;23.60
71205;BMP180;58935;54.498;18.544;2022-08-05T00:13:50;100590.80;;;23.60
71205;BMP180;58935;54.498;18.544;2022-08-05T00:16:15;100585.80;;;23.60
71205;BMP180;58935;54.498;18.544;2022-08-05T00:18:45;100581.00;;;23.60
71205;BMP180;58935;54.498;18.544;2022-08-05T00:21:16;100574.40;;;23.60
71205;BMP180;58935;54.498;18.544;2022-08-05T00:23:46;100579.20;;;23.60
71205;BMP180;58935;54.498;18.544;2022-08-05T00:26:13;100576.40;;;23.60
71205;BMP180;58935;54.498;18.544;2022-08-05T00:28:49;100581.80;;;23.60
71205;BMP180;58935;54.498;18.544;2022-08-05T00:31:15;100575.20;;;23.60
71205;BMP180;58935;54.498;18.544;2022-08-05T00:33:50;100579.00;;;23.54
71205;BMP180;58935;54.498;18.544;2022-08-05T00:36:22;100568.80;;;23.50
71205;BMP180;58935;54.498;18.544;2022-08-05T00:39:24;100569.60;;;23.50
71205;BMP180;58935;54.498;18.544;2022-08-05T00:41:50;100564.80;;;23.50
71205;BMP180;58935;54.498;18.544;2022-08-05T00:44:23;100566.40;;;23.50
71205;BMP180;58935;54.498;18.544;2022-08-05T00:46:53;100567.60;;;23.50
71205;BMP180;58935;54.498;18.544;2022-08-05T00:49:19;100569.80;;;23.50
71205;BMP180;58935;54.498;18.544;2022-08-05T00:51:45;100564.20;;;23.42
71205;BMP180;58935;54.498;18.544;2022-08-05T00:54:25;100562.20;;;23.40
71205;BMP180;58935;54.498;18.544;2022-08-05T00:56:52;100563.20;;;23.40
71205;BMP180;58935;54.498;18.544;2022-08-05T00:59:18;100563.40;;;23.40
71205;BMP180;58935;54.498;18.544;2022-08-05T01:01:46;100559.20;;;23.40
71205;BMP180;58935;54.498;18.544;2022-08-05T01:04:12;100561.80;;;23.40
71205;BMP180;58935;54.498;18.544;2022-08-05T01:06:37;100568.00;;;23.30
71205;BMP180;58935;54.498;18.544;2022-08-05T01:09:03;100567.20;;;23.30
71205;BMP180;58935;54.498;18.544;2022-08-05T01:11:36;100565.80;;;23.30
71205;BMP180;58935;54.498;18.544;2022-08-05T01:14:40;100565.40;;;23.20
71205;BMP180;58935;54.498;18.544;2022-08-05T01:17:33;100560.20;;;23.20
71205;BMP180;58935;54.498;18.544;2022-08-05T01:23:43;100557.40;;;23.10
71205;BMP180;58935;54.498;18.544;2022-08-05T01:29:04;100559.00;;;23.00
71205;BMP180;58935;54.498;18.544;2022-08-05T01:31:45;100556.40;;;23.00
71205;BMP180;58935;54.498;18.544;2022-08-05T01:34:25;100548.00;;;23.00
71205;BMP180;58935;54.498;18.544;2022-08-05T01:37:03;100549.20;;;22.90
71205;BMP180;58935;54.498;18.544;2022-08-05T01:39:33;100543.80;;;22.90
71205;BMP180;58935;54.498;18.544;2022-08-05T01:42:00;100543.80;;;22.88
71205;BMP180;58935;54.498;18.544;2022-08-05T01:44:42;100542.40;;;22.80
71205;BMP180;58935;54.498;18.544;2022-08-05T01:47:22;100544.80;;;22.80
71205;BMP180;58935;54.498;18.544;2022-08-05T01:49:52;100546.20;;;22.70
71205;BMP180;58935;54.498;18.544;2022-08-05T01:52:23;100540.80;;;22.70
71205;BMP180;58935;54.498;18.544;2022-08-05T01:55:01;100541.80;;;22.70
71205;BMP180;58935;54.498;18.544;2022-08-05T01:57:31;100543.60;;;22.60
71205;BMP180;58935;54.498;18.544;2022-08-05T02:00:03;100540.80;;;22.54
71205;BMP180;58935;54.498;18.544;2022-08-05T02:03:15;100545.40;;;22.50
71205;BMP180;58935;54.498;18.544;2022-08-05T02:05:43;100546.20;;;22.44
71205;BMP180;58935;54.498;18.544;2022-08-05T02:08:11;100543.80;;;22.40
71205;BMP180;58935;54.498;18.544;2022-08-05T02:10:43;100541.20;;;22.40
71205;BMP180;58935;54.498;18.544;2022-08-05T02:13:33;100539.00;;;22.30
71205;BMP180;58935;54.498;18.544;2022-08-05T02:16:13;100535.40;;;22.30
71205;BMP180;58935;54.498;18.544;2022-08-05T02:18:49;100536.20;;;22.22
71205;BMP180;58935;54.498;18.544;2022-08-05T02:21:44;100534.80;;;22.20
71205;BMP180;58935;54.498;18.544;2022-08-05T02:24:33;100535.80;;;22.20
71205;BMP180;58935;54.498;18.544;2022-08-05T02:27:04;100535.40;;;22.10
71205;BMP180;58935;54.498;18.544;2022-08-05T02:29:33;100532.80;;;22.10
71205;BMP180;58935;54.498;18.544;2022-08-05T02:32:21;100537.20;;;22.10
71205;BMP180;58935;54.498;18.544;2022-08-05T02:34:48;100540.60;;;22.10
71205;BMP180;58935;54.498;18.544;2022-08-05T02:37:16;100536.00;;;22.04
71205;BMP180;58935;54.498;18.544;2022-08-05T02:39:46;100541.40;;;22.00
71205;BMP180;58935;54.498;18.544;2022-08-05T02:42:14;100537.60;;;22.00
71205;BMP180;58935;54.498;18.544;2022-08-05T02:44:43;100536.40;;;22.00
71205;BMP180;58935;54.498;18.544;2022-08-05T02:47:30;100535.20;;;22.00
71205;BMP180;58935;54.498;18.544;2022-08-05T02:50:13;100530.60;;;21.94
71205;BMP180;58935;54.498;18.544;2022-08-05T02:55:30;100521.60;;;21.90
71205;BMP180;58935;54.498;18.544;2022-08-05T02:57:58;100526.40;;;21.90
71205;BMP180;58935;54.498;18.544;2022-08-05T03:00:24;100523.60;;;21.82
71205;BMP180;58935;54.498;18.544;2022-08-05T03:02:51;100520.60;;;21.82
71205;BMP180;58935;54.498;18.544;2022-08-05T03:05:21;100518.80;;;21.80
71205;BMP180;58935;54.498;18.544;2022-08-05T03:07:53;100518.80;;;21.80
71205;BMP180;58935;54.498;18.544;2022-08-05T03:10:19;100515.20;;;21.80
71205;BMP180;58935;54.498;18.544;2022-08-05T03:12:48;100516.60;;;21.80
71205;BMP180;58935;54.498;18.544;2022-08-05T03:15:22;100521.20;;;21.80
71205;BMP180;58935;54.498;18.544;2022-08-05T03:17:53;100518.80;;;21.70
71205;BMP180;58935;54.498;18.544;2022-08-05T03:20:19;100517.20;;;21.70
71205;BMP180;58935;54.498;18.544;2022-08-05T03:23:01;100520.20;;;21.70
71205;BMP180;58935;54.498;18.544;2022-08-05T03:25:30;100522.00;;;21.70
71205;BMP180;58935;54.498;18.544;2022-08-05T03:28:00;100521.20;;;21.70
71205;BMP180;58935;54.498;18.544;2022-08-05T03:30:29;100521.60;;;21.70
71205;BMP180;58935;54.498;18.544;2022-08-05T03:32:58;100519.60;;;21.70
71205;BMP180;58935;54.498;18.544;2022-08-05T03:35:26;100517.80;;;21.68
71205;BMP180;58935;54.498;18.544;2022-08-05T03:37:56;100518.00;;;21.70
71205;BMP180;58935;54.498;18.544;2022-08-05T03:40:22;100518.00;;;21.68
71205;BMP180;58935;54.498;18.544;2022-08-05T03:42:51;100516.00;;;21.70
71205;BMP180;58935;54.498;18.544;2022-08-05T03:45:33;100518.20;;;21.62
71205;BMP180;58935;54.498;18.544;2022-08-05T03:47:59;100521.80;;;21.64
71205;BMP180;58935;54.498;18.544;2022-08-05T03:50:34;100522.20;;;21.70
71205;BMP180;58935;54.498;18.544;2022-08-05T03:53:11;100526.20;;;21.70
71205;BMP180;58935;54.498;18.544;2022-08-05T03:55:56;100524.60;;;21.70
71205;BMP180;58935;54.498;18.544;2022-08-05T03:58:36;100526.00;;;21.70
71205;BMP180;58935;54.498;18.544;2022-08-05T04:01:05;100528.40;;;21.70
71205;BMP180;58935;54.498;18.544;2022-08-05T04:03:34;100528.80;;;21.70
71205;BMP180;58935;54.498;18.544;2022-08-05T04:06:04;100527.80;;;21.70
71205;BMP180;58935;54.498;18.544;2022-08-05T04:08:34;100528.40;;;21.70
71205;BMP180;58935;54.498;18.544;2022-08-05T04:11:01;100531.20;;;21.80
71205;BMP180;58935;54.498;18.544;2022-08-05T04:13:31;100527.60;;;21.80
71205;BMP180;58935;54.498;18.544;2022-08-05T04:15:57;100522.60;;;21.80
71205;BMP180;58935;54.498;18.544;2022-08-05T04:18:23;100522.20;;;21.80
71205;BMP180;58935;54.498;18.544;2022-08-05T04:20:54;100519.00;;;21.90
71205;BMP180;58935;54.498;18.544;2022-08-05T04:23:38;100514.80;;;21.90
71205;BMP180;58935;54.498;18.544;2022-08-05T04:26:04;100516.40;;;21.90
71205;BMP180;58935;54.498;18.544;2022-08-05T04:28:30;100518.20;;;22.00
71205;BMP180;58935;54.498;18.544;2022-08-05T04:30:56;100518.20;;;22.00
71205;BMP180;58935;54.498;18.544;2022-08-05T04:33:21;100523.00;;;22.00
71205;BMP180;58935;54.498;18.544;2022-08-05T04:35:47;100525.20;;;22.10
71205;BMP180;58935;54.498;18.544;2022-08-05T04:38:32;100523.40;;;22.10
71205;BMP180;58935;54.498;18.544;2022-08-05T04:40:58;100523.60;;;22.20
71205;BMP180;58935;54.498;18.544;2022-08-05T04:43:23;100524.40;;;22.20
71205;BMP180;58935;54.498;18.544;2022-08-05T04:45:49;100518.20;;;22.20
71205;BMP180;58935;54.498;18.544;2022-08-05T04:48:14;100519.20;;;22.20
71205;BMP180;58935;54.498;18.544;2022-08-05T04:50:56;100518.80;;;22.20
71205;BMP180;58935;54.498;18.544;2022-08-05T04:53:22;100519.40;;;22.30
71205;BMP180;58935;54.498;18.544;2022-08-05T04:55:48;100516.60;;;22.30
71205;BMP180;58935;54.498;18.544;2022-08-05T04:58:16;100515.80;;;22.30
71205;BMP180;58935;54.498;18.544;2022-08-05T05:00:45;100517.60;;;22.40
71205;BMP180;58935;54.498;18.544;2022-08-05T05:03:14;100523.40;;;22.40
71205;BMP180;58935;54.498;18.544;2022-08-05T05:05:39;100523.20;;;22.50
71205;BMP180;58935;54.498;18.544;2022-08-05T05:08:08;100526.80;;;22.50
71205;BMP180;58935;54.498;18.544;2022-08-05T05:10:40;100521.40;;;22.60
71205;BMP180;58935;54.498;18.544;2022-08-05T05:13:13;100521.00;;;22.60
71205;BMP180;58935;54.498;18.544;2022-08-05T05:15:41;100525.20;;;22.70
71205;BMP180;58935;54.498;18.544;2022-08-05T05:18:13;100518.60;;;22.70
71205;BMP180;58935;54.498;18.544;2022-08-05T05:20:42;100519.60;;;22.70
71205;BMP180;58935;54.498;18.544;2022-08-05T05:23:08;100517.40;;;22.80
71205;BMP180;58935;54.498;18.544;2022-08-05T05:25:34;100522.00;;;22.80
71205;BMP180;58935;54.498;18.544;2022-08-05T05:28:03;100524.80;;;22.90
71205;BMP180;58935;54.498;18.544;2022-08-05T05:30:28;100523.20;;;22.90
71205;BMP180;58935;54.498;18.544;2022-08-05T05:32:54;100522.60;;;22.90
71205;BMP180;58935;54.498;18.544;2022-08-05T05:35:23;100524.80;;;23.00
71205;BMP180;58935;54.498;18.544;2022-08-05T05:37:55;100523.00;;;23.04
71205;BMP180;58935;54.498;18.544;2022-08-05T05:40:25;100520.40;;;23.10
71205;BMP180;58935;54.498;18.544;2022-08-05T05:42:52;100521.40;;;23.20
71205;BMP180;58935;54.498;18.544;2022-08-05T05:45:19;100521.00;;;23.24
71205;BMP180;58935;54.498;18.544;2022-08-05T05:47:48;100521.60;;;23.30
71205;BMP180;58935;54.498;18.544;2022-08-05T05:50:34;100517.60;;;23.40
71205;BMP180;58935;54.498;18.544;2022-08-05T05:53:00;100519.00;;;23.40
71205;BMP180;58935;54.498;18.544;2022-08-05T05:55:26;100513.40;;;23.44
71205;BMP180;58935;54.498;18.544;2022-08-05T05:58:07;100516.80;;;23.50
71205;BMP180;58935;54.498;18.544;2022-08-05T06:00:32;100520.60;;;23.50
71205;BMP180;58935;54.498;18.544;2022-08-05T06:03:07;100518.80;;;23.50
71205;BMP180;58935;54.498;18.544;2022-08-05T06:05:38;100514.80;;;23.50
71205;BMP180;58935;54.498;18.544;2022-08-05T06:08:05;100512.60;;;23.50
71205;BMP180;58935;54.498;18.544;2022-08-05T06:10:37;100516.60;;;23.52
71205;BMP180;58935;54.498;18.544;2022-08-05T06:13:02;100519.80;;;23.60
71205;BMP180;58935;54.498;18.544;2022-08-05T06:15:29;100521.00;;;23.60
71205;BMP180;58935;54.498;18.544;2022-08-05T06:17:54;100526.00;;;23.70
71205;BMP180;58935;54.498;18.544;2022-08-05T06:20:20;100524.20;;;23.70
71205;BMP180;58935;54.498;18.544;2022-08-05T06:22:46;100522.40;;;23.80
71205;BMP180;58935;54.498;18.544;2022-08-05T06:25:20;100519.80;;;23.90
71205;BMP180;58935;54.498;18.544;2022-08-05T06:27:52;100517.80;;;23.98
71205;BMP180;58935;54.498;18.544;2022-08-05T06:30:19;100516.00;;;24.00
71205;BMP180;58935;54.498;18.544;2022-08-05T06:32:46;100508.00;;;24.10
71205;BMP180;58935;54.498;18.544;2022-08-05T06:35:11;100512.20;;;24.20
71205;BMP180;58935;54.498;18.544;2022-08-05T06:37:37;100504.00;;;24.20
71205;BMP180;58935;54.498;18.544;2022-08-05T06:40:06;100506.20;;;24.30
71205;BMP180;58935;54.498;18.544;2022-08-05T06:42:36;100504.80;;;24.40
71205;BMP180;58935;54.498;18.544;2022-08-05T06:45:17;100500.20;;;24.50
71205;BMP180;58935;54.498;18.544;2022-08-05T06:47:54;100496.60;;;24.60
71205;BMP180;58935;54.498;18.544;2022-08-05T06:50:20;100495.40;;;24.64
71205;BMP180;58935;54.498;18.544;2022-08-05T06:52:45;100494.60;;;24.70
71205;BMP180;58935;54.498;18.544;2022-08-05T06:55:19;100493.80;;;24.80
71205;BMP180;58935;54.498;18.544;2022-08-05T06:57:44;100499.20;;;24.88
71205;BMP180;58935;54.498;18.544;2022-08-05T07:00:13;100495.20;;;24.92
71205;BMP180;58935;54.498;18.544;2022-08-05T07:02:43;100499.20;;;25.00
71205;BMP180;58935;54.498;18.544;2022-08-05T07:05:09;100500.60;;;25.00
71205;BMP180;58935;54.498;18.544;2022-08-05T07:07:37;100497.60;;;25.04
71205;BMP180;58935;54.498;18.544;2022-08-05T07:10:14;100495.40;;;25.10
71205;BMP180;58935;54.498;18.544;2022-08-05T07:12:56;100492.80;;;25.16
71205;BMP180;58935;54.498;18.544;2022-08-05T07:15:27;100490.60;;;25.20
71205;BMP180;58935;54.498;18.544;2022-08-05T07:18:02;100484.20;;;25.20
71205;BMP180;58935;54.498;18.544;2022-08-05T07:20:27;100482.20;;;25.30
71205;BMP180;58935;54.498;18.544;2022-08-05T07:22:52;100480.20;;;25.30
71205;BMP180;58935;54.498;18.544;2022-08-05T07:25:29;100477.20;;;25.40
71205;BMP180;58935;54.498;18.544;2022-08-05T07:27:55;100480.80;;;25.50
71205;BMP180;58935;54.498;18.544;2022-08-05T07:30:24;100484.60;;;25.50
71205;BMP180;58935;54.498;18.544;2022-08-05T07:32:54;100479.20;;;25.60
71205;BMP180;58935;54.498;18.544;2022-08-05T07:35:19;100476.00;;;25.60
71205;BMP180;58935;54.498;18.544;2022-08-05T07:37:44;100475.00;;;25.60
71205;BMP180;58935;54.498;18.544;2022-08-05T07:40:13;100470.60;;;25.70
71205;BMP180;58935;54.498;18.544;2022-08-05T07:42:42;100471.80;;;25.70
71205;BMP180;58935;54.498;18.544;2022-08-05T07:45:08;100473.60;;;25.80
71205;BMP180;58935;54.498;18.544;2022-08-05T07:47:37;100470.80;;;25.80
71205;BMP180;58935;54.498;18.544;2022-08-05T07:50:05;100472.00;;;25.90
71205;BMP180;58935;54.498;18.544;2022-08-05T07:52:38;100474.00;;;25.90
71205;BMP180;58935;54.498;18.544;2022-08-05T07:55:05;100476.00;;;26.00
71205;BMP180;58935;54.498;18.544;2022-08-05T08:00:15;100479.20;;;26.10
71205;BMP180;58935;54.498;18.544;2022-08-05T08:02:40;100481.00;;;26.14
71205;BMP180;58935;54.498;18.544;2022-08-05T08:05:22;100480.80;;;26.20
71205;BMP180;58935;54.498;18.544;2022-08-05T08:07:48;100479.60;;;26.30
71205;BMP180;58935;54.498;18.544;2022-08-05T08:10:13;100483.20;;;26.40
71205;BMP180;58935;54.498;18.544;2022-08-05T08:12:39;100478.40;;;26.48
71205;BMP180;58935;54.498;18.544;2022-08-05T08:15:08;100478.40;;;26.56
71205;BMP180;58935;54.498;18.544;2022-08-05T08:17:36;100474.40;;;26.60
71205;BMP180;58935;54.498;18.544;2022-08-05T08:20:02;100472.80;;;26.70
71205;BMP180;58935;54.498;18.544;2022-08-05T08:22:37;100475.40;;;26.80
71205;BMP180;58935;54.498;18.544;2022-08-05T08:25:12;100478.80;;;26.90
71205;BMP180;58935;54.498;18.544;2022-08-05T08:27:45;100474.20;;;26.96
71205;BMP180;58935;54.498;18.544;2022-08-05T08:30:12;100474.60;;;27.04
71205;BMP180;58935;54.498;18.544;2022-08-05T08:32:39;100469.40;;;27.18
71205;BMP180;58935;54.498;18.544;2022-08-05T08:35:06;100465.60;;;27.28
71205;BMP180;58935;54.498;18.544;2022-08-05T08:37:32;100466.20;;;27.40
71205;BMP180;58935;54.498;18.544;2022-08-05T08:39:58;100468.40;;;27.40
71205;BMP180;58935;54.498;18.544;2022-08-05T08:42:30;100466.80;;;27.50
71205;BMP180;58935;54.498;18.544;2022-08-05T08:44:57;100470.20;;;27.60
71205;BMP180;58935;54.498;18.544;2022-08-05T08:47:25;100461.00;;;27.70
71205;BMP180;58935;54.498;18.544;2022-08-05T08:49:55;100466.80;;;27.70
71205;BMP180;58935;54.498;18.544;2022-08-05T08:52:28;100468.80;;;27.80
71205;BMP180;58935;54.498;18.544;2022-08-05T08:54:54;100462.20;;;27.88
71205;BMP180;58935;54.498;18.544;2022-08-05T08:57:21;100464.00;;;27.90
71205;BMP180;58935;54.498;18.544;2022-08-05T08:59:49;100464.20;;;28.00
71205;BMP180;58935;54.498;18.544;2022-08-05T09:02:17;100467.20;;;28.10
71205;BMP180;58935;54.498;18.544;2022-08-05T09:04:44;100467.20;;;28.16
71205;BMP180;58935;54.498;18.544;2022-08-05T09:07:19;100461.80;;;28.20
71205;BMP180;58935;54.498;18.544;2022-08-05T09:09:54;100454.60;;;28.30
71205;BMP180;58935;54.498;18.544;2022-08-05T09:12:19;100460.40;;;28.40
71205;BMP180;58935;54.498;18.544;2022-08-05T09:14:44;100454.60;;;28.40
71205;BMP180;58935;54.498;18.544;2022-08-05T09:17:11;100455.20;;;28.40
71205;BMP180;58935;54.498;18.544;2022-08-05T09:19:37;100456.00;;;28.46
71205;BMP180;58935;54.498;18.544;2022-08-05T09:22:03;100455.60;;;28.50
71205;BMP180;58935;54.498;18.544;2022-08-05T09:24:29;100452.00;;;28.58
71205;BMP180;58935;54.498;18.544;2022-08-05T09:26:57;100450.00;;;28.60
71205;BMP180;58935;54.498;18.544;2022-08-05T09:29:49;100447.20;;;28.70
71205;BMP180;58935;54.498;18.544;2022-08-05T09:32:22;100442.20;;;28.70
71205;BMP180;58935;54.498;18.544;2022-08-05T09:35:12;100444.80;;;28.78
71205;BMP180;58935;54.498;18.544;2022-08-05T09:38:09;100437.80;;;28.80
71205;BMP180;58935;54.498;18.544;2022-08-05T09:40:39;100434.40;;;28.88
71205;BMP180;58935;54.498;18.544;2022-08-05T09:43:28;100434.20;;;28.90
71205;BMP180;58935;54.498;18.544;2022-08-05T09:45:53;100435.80;;;28.90
71205;BMP180;58935;54.498;18.544;2022-08-05T09:48:24;100426.60;;;28.98
71205;BMP180;58935;54.498;18.544;2022-08-05T09:50:54;100433.20;;;29.00
71205;BMP180;58935;54.498;18.544;2022-08-05T09:53:20;100422.20;;;29.00
71205;BMP180;58935;54.498;18.544;2022-08-05T09:55:59;100419.60;;;29.10
71205;BMP180;58935;54.498;18.544;2022-08-05T09:58:27;100421.00;;;29.14
71205;BMP180;58935;54.498;18.544;2022-08-05T10:00:58;100420.60;;;29.24
71205;BMP180;58935;54.498;18.544;2022-08-05T10:03:24;100419.40;;;29.30
71205;BMP180;58935;54.498;18.544;2022-08-05T10:06:07;100415.20;;;29.40
71205;BMP180;58935;54.498;18.544;2022-08-05T10:08:36;100415.80;;;29.40
71205;BMP180;58935;54.498;18.544;2022-08-05T10:11:31;100411.60;;;29.50
71205;BMP180;58935;54.498;18.544;2022-08-05T10:13:56;100410.00;;;29.60
71205;BMP180;58935;54.498;18.544;2022-08-05T10:16:33;100415.40;;;29.60
71205;BMP180;58935;54.498;18.544;2022-08-05T10:19:00;100406.00;;;29.66
71205;BMP180;58935;54.498;18.544;2022-08-05T10:21:35;100410.20;;;29.70
71205;BMP180;58935;54.498;18.544;2022-08-05T10:24:01;100409.60;;;29.80
71205;BMP180;58935;54.498;18.544;2022-08-05T10:26:27;100403.60;;;29.80
71205;BMP180;58935;54.498;18.544;2022-08-05T10:28:52;100401.20;;;29.90
71205;BMP180;58935;54.498;18.544;2022-08-05T10:33:47;100388.20;;;29.92
71205;BMP180;58935;54.498;18.544;2022-08-05T10:36:14;100396.20;;;30.00
71205;BMP180;58935;54.498;18.544;2022-08-05T10:38:51;100390.80;;;30.02
71205;BMP180;58935;54.498;18.544;2022-08-05T10:41:31;100394.40;;;30.10
71205;BMP180;58935;54.498;18.544;2022-08-05T10:44:23;100384.40;;;30.20
71205;BMP180;58935;54.498;18.544;2022-08-05T10:46:55;100385.00;;;30.30
71205;BMP180;58935;54.498;18.544;2022-08-05T10:49:24;100376.80;;;30.38
71205;BMP180;58935;54.498;18.544;2022-08-05T10:52:22;100381.40;;;30.40
71205;BMP180;58935;54.498;18.544;2022-08-05T10:55:07;100374.00;;;30.50
71205;BMP180;58935;54.498;18.544;2022-08-05T10:57:40;100374.40;;;30.50
71205;BMP180;58935;54.498;18.544;2022-08-05T11:00:20;100379.80;;;30.60
71205;BMP180;58935;54.498;18.544;2022-08-05T11:03:10;100373.80;;;30.70
71205;BMP180;58935;54.498;18.544;2022-08-05T11:05:36;100366.60;;;30.80
71205;BMP180;58935;54.498;18.544;2022-08-05T11:08:06;100363.20;;;30.80
71205;BMP180;58935;54.498;18.544;2022-08-05T11:10:34;100366.40;;;30.88
71205;BMP180;58935;54.498;18.544;2022-08-05T11:13:03;100364.00;;;30.90
71205;BMP180;58935;54.498;18.544;2022-08-05T11:15:35;100367.40;;;31.00
71205;BMP180;58935;54.498;18.544;2022-08-05T11:18:22;100359.00;;;31.10
71205;BMP180;58935;54.498;18.544;2022-08-05T11:20:50;100354.00;;;31.10
71205;BMP180;58935;54.498;18.544;2022-08-05T11:23:50;100354.60;;;31.20
71205;BMP180;58935;54.498;18.544;2022-08-05T11:26:22;100347.60;;;31.30
71205;BMP180;58935;54.498;18.544;2022-08-05T11:28:53;100353.80;;;31.30
71205;BMP180;58935;54.498;18.544;2022-08-05T11:31:27;100348.40;;;31.30
71205;BMP180;58935;54.498;18.544;2022-08-05T11:34:00;100344.80;;;31.30
71205;BMP180;58935;54.498;18.544;2022-08-05T11:39:02;100348.80;;;31.40
71205;BMP180;58935;54.498;18.544;2022-08-05T11:41:31;100342.00;;;31.48
71205;BMP180;58935;54.498;18.544;2022-08-05T11:44:14;100333.40;;;31.50
71205;BMP180;58935;54.498;18.544;2022-08-05T11:46:50;100336.20;;;31.60
71205;BMP180;58935;54.498;18.544;2022-08-05T11:49:28;100334.60;;;31.70
71205;BMP180;58935;54.498;18.544;2022-08-05T11:51:54;100333.00;;;31.80
71205;BMP180;58935;54.498;18.544;2022-08-05T11:54:35;100330.40;;;31.90
71205;BMP180;58935;54.498;18.544;2022-08-05T11:57:03;100331.60;;;32.00
71205;BMP180;58935;54.498;18.544;2022-08-05T11:59:34;100330.20;;;32.00
71205;BMP180;58935;54.498;18.544;2022-08-05T12:02:02;100321.00;;;32.10
71205;BMP180;58935;54.498;18.544;2022-08-05T12:04:48;100332.60;;;32.20
71205;BMP180;58935;54.498;18.544;2022-08-05T12:07:16;100334.80;;;32.30
71205;BMP180;58935;54.498;18.544;2022-08-05T12:09:52;100335.00;;;32.40
71205;BMP180;58935;54.498;18.544;2022-08-05T12:12:22;100325.80;;;32.40
71205;BMP180;58935;54.498;18.544;2022-08-05T12:14:48;100331.00;;;32.40
71205;BMP180;58935;54.498;18.544;2022-08-05T12:17:21;100321.40;;;32.48
71205;BMP180;58935;54.498;18.544;2022-08-05T12:20:15;100315.40;;;32.56
71205;BMP180;58935;54.498;18.544;2022-08-05T12:23:10;100313.40;;;32.60
71205;BMP180;58935;54.498;18.544;2022-08-05T12:25:49;100310.40;;;32.60
71205;BMP180;58935;54.498;18.544;2022-08-05T12:28:43;100308.00;;;32.60
71205;BMP180;58935;54.498;18.544;2022-08-05T12:31:09;100313.20;;;32.70
71205;BMP180;58935;54.498;18.544;2022-08-05T12:33:38;100306.00;;;32.70
71205;BMP180;58935;54.498;18.544;2022-08-05T12:36:08;100306.40;;;32.80
71205;BMP180;58935;54.498;18.544;2022-08-05T12:38:37;100310.60;;;32.80
71205;BMP180;58935;54.498;18.544;2022-08-05T12:41:09;100309.80;;;32.90
71205;BMP180;58935;54.498;18.544;2022-08-05T12:43:54;100309.60;;;32.90
71205;BMP180;58935;54.498;18.544;2022-08-05T12:46:36;100304.20;;;33.00
71205;BMP180;58935;54.498;18.544;2022-08-05T12:49:14;100305.40;;;33.10
71205;BMP180;58935;54.498;18.544;2022-08-05T12:51:56;100307.80;;;33.30
71205;BMP180;58935;54.498;18.544;2022-08-05T12:54:29;100301.40;;;33.40
71205;BMP180;58935;54.498;18.544;2022-08-05T12:56:58;100300.80;;;33.40
71205;BMP180;58935;54.498;18.544;2022-08-05T12:59:34;100303.20;;;33.48
71205;BMP180;58935;54.498;18.544;2022-08-05T13:02:09;100303.80;;;33.50
71205;BMP180;58935;54.498;18.544;2022-08-05T13:04:44;100306.60;;;33.50
71205;BMP180;58935;54.498;18.544;2022-08-05T13:07:17;100302.60;;;33.60
71205;BMP180;58935;54.498;18.544;2022-08-05T13:09:49;100295.00;;;33.70
71205;BMP180;58935;54.498;18.544;2022-08-05T13:12:22;100302.80;;;33.80
71205;BMP180;58935;54.498;18.544;2022-08-05T13:14:59;100298.40;;;33.80
71205;BMP180;58935;54.498;18.544;2022-08-05T13:17:29;100296.40;;;33.90
71205;BMP180;58935;54.498;18.544;2022-08-05T13:23:06;100278.40;;;34.10
71205;BMP180;58935;54.498;18.544;2022-08-05T13:25:31;100282.60;;;34.16
71205;BMP180;58935;54.498;18.544;2022-08-05T13:28:02;100280.80;;;34.30
71205;BMP180;58935;54.498;18.544;2022-08-05T13:30:29;100281.40;;;34.40
71205;BMP180;58935;54.498;18.544;2022-08-05T13:32:55;100279.80;;;34.40
71205;BMP180;58935;54.498;18.544;2022-08-05T13:35:36;100275.00;;;34.40
71205;BMP180;58935;54.498;18.544;2022-08-05T13:38:08;100278.00;;;34.50
71205;BMP180;58935;54.498;18.544;2022-08-05T13:40:36;100278.40;;;34.60
71205;BMP180;58935;54.498;18.544;2022-08-05T13:43:02;100269.80;;;34.50
71205;BMP180;58935;54.498;18.544;2022-08-05T13:45:38;100264.40;;;34.50
71205;BMP180;58935;54.498;18.544;2022-08-05T13:48:04;100266.20;;;34.50
71205;BMP180;58935;54.498;18.544;2022-08-05T13:50:29;100266.00;;;34.50
71205;BMP180;58935;54.498;18.544;2022-08-05T13:53:04;100261.20;;;34.50
71205;BMP180;58935;54.498;18.544;2022-08-05T13:55:29;100265.40;;;34.50
71205;BMP180;58935;54.498;18.544;2022-08-05T13:57:55;100267.60;;;34.60
71205;BMP180;58935;54.498;18.544;2022-08-05T14:00:20;100262.00;;;34.70
71205;BMP180;58935;54.498;18.544;2022-08-05T14:02:55;100261.00;;;34.70
71205;BMP180;58935;54.498;18.544;2022-08-05T14:05:21;100263.80;;;34.60
71205;BMP180;58935;54.498;18.544;2022-08-05T14:08:08;100256.20;;;34.50
71205;BMP180;58935;54.498;18.544;2022-08-05T14:10:40;100257.80;;;34.40
71205;BMP180;58935;54.498;18.544;2022-08-05T14:13:08;100257.80;;;34.10
71205;BMP180;58935;54.498;18.544;2022-08-05T14:15:43;100257.00;;;34.00
71205;BMP180;58935;54.498;18.544;2022-08-05T14:18:09;100257.00;;;33.96
71205;BMP180;58935;54.498;18.544;2022-08-05T14:20:34;100255.20;;;33.90
71205;BMP180;58935;54.498;18.544;2022-08-05T14:23:00;100253.60;;;34.00
71205;BMP180;58935;54.498;18.544;2022-08-05T14:25:29;100251.20;;;33.90
71205;BMP180;58935;54.498;18.544;2022-08-05T14:27:55;100254.40;;;33.80
71205;BMP180;58935;54.498;18.544;2022-08-05T14:30:20;100254.00;;;33.64